createdAt,value
2022-11-03T00:01:33.986Z,87.79
2022-11-03T00:04:00.499Z,87.78
2022-11-03T00:06:26.961Z,87.76
2022-11-03T00:08:53.330Z,87.03
2022-11-03T00:11:19.695Z,86.91
2022-11-03T00:13:46.054Z,87.15
2022-11-03T00:16:12.693Z,89.15
2022-11-03T00:18:39.229Z,90.57
2022-11-03T00:21:10.138Z,91.41
2022-11-03T00:23:41.181Z,92.29
2022-11-03T00:26:16.542Z,91.90
2022-11-03T00:28:44.767Z,92.00
2022-11-03T00:31:16.913Z,93.05
2022-11-03T00:33:43.926Z,94.31
2022-11-03T00:36:12.674Z,94.46
2022-11-03T00:38:39.042Z,95.47
2022-11-03T00:41:06.201Z,95.74
2022-11-03T00:43:34.113Z,96.00
2022-11-03T00:46:01.157Z,96.62
2022-11-03T00:48:30.416Z,97.70
2022-11-03T00:51:10.367Z,98.29
2022-11-03T00:53:47.632Z,99.77
2022-11-03T00:56:22.235Z,99.54
2022-11-03T00:58:49.598Z,100.00
2022-11-03T01:01:24.616Z,100.00
2022-11-03T01:04:12.194Z,100.00
2022-11-03T01:06:49.963Z,100.00
2022-11-03T01:09:21.723Z,100.00
2022-11-03T01:11:58.419Z,100.00
2022-11-03T01:14:30.953Z,100.00
2022-11-03T01:16:57.673Z,100.00
2022-11-03T01:19:25.212Z,100.00
2022-11-03T01:21:52.929Z,100.00
2022-11-03T01:24:19.728Z,100.00
2022-11-03T01:26:46.103Z,100.00
2022-11-03T01:29:12.472Z,100.00
2022-11-03T01:31:39.000Z,100.00
2022-11-03T01:34:05.431Z,100.00
2022-11-03T01:36:31.794Z,100.00
2022-11-03T01:38:58.216Z,100.00
2022-11-03T01:41:27.927Z,100.00
2022-11-03T01:44:17.163Z,100.00
2022-11-03T01:47:19.162Z,100.00
2022-11-03T01:49:56.949Z,100.00
2022-11-03T01:52:33.879Z,100.00
2022-11-03T01:55:13.979Z,100.00
2022-11-03T01:57:45.380Z,100.00
2022-11-03T02:00:12.343Z,100.00
2022-11-03T02:02:38.726Z,100.00
2022-11-03T02:05:06.100Z,100.00
2022-11-03T02:07:37.378Z,100.00
2022-11-03T02:10:04.290Z,100.00
2022-11-03T02:12:30.825Z,100.00
2022-11-03T02:15:08.506Z,100.00
2022-11-03T02:17:36.135Z,100.00
2022-11-03T02:20:09.815Z,100.00
2022-11-03T02:23:01.576Z,100.00
2022-11-03T02:25:35.205Z,100.00
2022-11-03T02:28:02.794Z,100.00
2022-11-03T02:30:52.912Z,100.00
2022-11-03T02:33:30.158Z,100.00
2022-11-03T02:36:02.134Z,100.00
2022-11-03T02:38:30.603Z,100.00
2022-11-03T02:41:00.739Z,100.00
2022-11-03T02:43:28.050Z,100.00
2022-11-03T02:45:55.241Z,100.00
2022-11-03T02:48:21.791Z,100.00
2022-11-03T02:50:49.166Z,100.00
2022-11-03T02:53:16.401Z,100.00
2022-11-03T02:55:56.183Z,100.00
2022-11-03T02:58:28.461Z,100.00
2022-11-03T03:00:55.682Z,100.00
2022-11-03T03:03:27.282Z,100.00
2022-11-03T03:05:58.493Z,100.00
2022-11-03T03:08:26.061Z,100.00
2022-11-03T03:10:53.142Z,100.00
2022-11-03T03:13:20.491Z,100.00
2022-11-03T03:15:57.372Z,100.00
2022-11-03T03:18:31.253Z,100.00
2022-11-03T03:21:04.316Z,100.00
2022-11-03T03:23:34.160Z,100.00
2022-11-03T03:26:05.293Z,100.00
2022-11-03T03:28:42.970Z,100.00
2022-11-03T03:31:11.893Z,100.00
2022-11-03T03:33:40.755Z,100.00
2022-11-03T03:36:13.592Z,100.00
2022-11-03T03:38:44.125Z,100.00
2022-11-03T03:41:21.627Z,100.00
2022-11-03T03:43:50.311Z,100.00
2022-11-03T03:46:17.986Z,100.00
2022-11-03T03:48:44.474Z,100.00
2022-11-03T03:51:12.599Z,100.00
2022-11-03T03:53:38.989Z,100.00
2022-11-03T03:56:05.847Z,100.00
2022-11-03T03:58:32.327Z,100.00
2022-11-03T04:00:58.733Z,100.00
2022-11-03T04:03:26.749Z,100.00
2022-11-03T04:05:55.910Z,100.00
2022-11-03T04:08:22.504Z,100.00
2022-11-03T04:11:07.274Z,100.00
2022-11-03T04:13:52.576Z,100.00
2022-11-03T04:16:37.375Z,100.00
2022-11-03T04:19:22.480Z,100.00
2022-11-03T04:22:07.361Z,100.00
2022-11-03T04:24:33.816Z,100.00
2022-11-03T04:27:04.877Z,100.00
2022-11-03T04:29:32.350Z,100.00
2022-11-03T04:31:59.577Z,100.00
2022-11-03T04:34:25.949Z,100.00
2022-11-03T04:36:52.314Z,100.00
2022-11-03T04:39:19.758Z,100.00
2022-11-03T04:41:46.341Z,100.00
2022-11-03T04:44:16.715Z,100.00
2022-11-03T04:46:44.026Z,100.00
2022-11-03T04:49:13.831Z,100.00
2022-11-03T04:51:40.856Z,100.00
2022-11-03T04:54:13.987Z,100.00
2022-11-03T04:56:40.754Z,100.00
2022-11-03T04:59:14.595Z,100.00
2022-11-03T05:01:41.148Z,100.00
2022-11-03T05:04:18.297Z,100.00
2022-11-03T05:06:51.404Z,100.00
2022-11-03T05:09:21.357Z,100.00
2022-11-03T05:11:47.791Z,100.00
2022-11-03T05:14:23.215Z,100.00
2022-11-03T05:16:53.463Z,100.00
2022-11-03T05:19:27.489Z,100.00
2022-11-03T05:21:56.427Z,100.00
2022-11-03T05:24:26.628Z,100.00
2022-11-03T05:26:54.658Z,100.00
2022-11-03T05:29:24.042Z,100.00
2022-11-03T05:31:52.315Z,100.00
2022-11-03T05:34:31.627Z,100.00
2022-11-03T05:37:25.078Z,100.00
2022-11-03T05:39:55.489Z,100.00
2022-11-03T05:42:35.026Z,100.00
2022-11-03T05:45:10.667Z,100.00
2022-11-03T05:47:38.349Z,100.00
2022-11-03T05:50:21.479Z,100.00
2022-11-03T05:52:49.230Z,100.00
2022-11-03T05:55:24.852Z,100.00
2022-11-03T05:57:51.424Z,100.00
2022-11-03T06:00:33.485Z,100.00
2022-11-03T06:03:00.312Z,100.00
2022-11-03T06:05:27.252Z,100.00
2022-11-03T06:07:55.929Z,100.00
2022-11-03T06:10:25.338Z,100.00
2022-11-03T06:12:54.714Z,100.00
2022-11-03T06:15:30.030Z,100.00
2022-11-03T06:17:57.262Z,100.00
2022-11-03T06:20:24.026Z,100.00
2022-11-03T06:22:52.984Z,100.00
2022-11-03T06:25:29.269Z,100.00
2022-11-03T06:27:59.960Z,100.00
2022-11-03T06:30:26.353Z,100.00
2022-11-03T06:32:54.678Z,100.00
2022-11-03T06:35:21.128Z,100.00
2022-11-03T06:37:47.579Z,100.00
2022-11-03T06:40:13.916Z,100.00
2022-11-03T06:42:40.316Z,100.00
2022-11-03T06:45:17.431Z,100.00
2022-11-03T06:47:43.841Z,100.00
2022-11-03T06:50:26.135Z,100.00
2022-11-03T06:52:54.181Z,100.00
2022-11-03T06:55:28.577Z,100.00
2022-11-03T06:58:00.620Z,100.00
2022-11-03T07:00:34.759Z,100.00
2022-11-03T07:03:08.154Z,100.00
2022-11-03T07:05:34.799Z,100.00
2022-11-03T07:08:03.939Z,100.00
2022-11-03T07:10:33.212Z,100.00
2022-11-03T07:13:07.425Z,100.00
2022-11-03T07:15:37.362Z,100.00
2022-11-03T07:18:05.722Z,100.00
2022-11-03T07:20:32.401Z,100.00
2022-11-03T07:23:01.342Z,100.00
2022-11-03T07:25:27.778Z,100.00
2022-11-03T07:27:57.229Z,100.00
2022-11-03T07:30:28.026Z,100.00
2022-11-03T07:32:59.463Z,100.00
2022-11-03T07:36:00.298Z,100.00
2022-11-03T07:38:23.094Z,100.00
2022-11-03T07:40:50.801Z,100.00
2022-11-03T07:43:20.146Z,100.00
2022-11-03T07:45:52.024Z,100.00
2022-11-03T07:48:20.014Z,100.00
2022-11-03T07:50:47.650Z,100.00
2022-11-03T07:53:23.292Z,100.00
2022-11-03T07:55:53.779Z,100.00
2022-11-03T07:58:37.694Z,100.00
2022-11-03T08:01:20.124Z,100.00
2022-11-03T08:03:47.493Z,100.00
2022-11-03T08:06:17.246Z,100.00
2022-11-03T08:08:46.269Z,100.00
2022-11-03T08:13:43.900Z,99.89
2022-11-03T08:16:10.277Z,99.45
2022-11-03T08:18:37.077Z,98.57
2022-11-03T08:21:03.524Z,97.97
2022-11-03T08:23:30.169Z,97.66
2022-11-03T08:25:56.777Z,97.01
2022-11-03T08:28:23.133Z,96.21
2022-11-03T08:30:49.509Z,95.47
2022-11-03T08:33:16.026Z,95.16
2022-11-03T08:35:42.403Z,94.08
2022-11-03T08:38:09.167Z,93.52
2022-11-03T08:40:35.776Z,94.10
2022-11-03T08:43:03.015Z,93.07
2022-11-03T08:45:30.138Z,91.74
2022-11-03T08:47:56.791Z,91.64
2022-11-03T08:50:23.407Z,90.79
2022-11-03T08:52:49.817Z,90.53
2022-11-03T08:55:16.240Z,90.62
2022-11-03T08:57:42.584Z,89.95
2022-11-03T09:00:09.913Z,89.33
2022-11-03T09:02:36.370Z,88.63
2022-11-03T09:05:03.642Z,86.99
2022-11-03T09:12:48.254Z,86.68
2022-11-03T09:15:14.626Z,86.03
2022-11-03T09:17:43.296Z,84.96
2022-11-03T09:20:12.342Z,84.56
2022-11-03T09:22:39.243Z,82.92
2022-11-03T09:25:06.178Z,83.22
2022-11-03T09:27:32.597Z,82.29
2022-11-03T09:30:12.892Z,81.48
2022-11-03T09:32:40.418Z,81.08
2022-11-03T09:35:08.457Z,79.32
2022-11-03T09:37:34.830Z,78.37
2022-11-03T09:40:01.232Z,77.64
2022-11-03T09:42:27.715Z,76.84
2022-11-03T09:44:54.972Z,75.73
2022-11-03T09:47:28.054Z,75.53
2022-11-03T09:50:04.318Z,75.23
2022-11-03T09:52:31.142Z,75.04
2022-11-03T09:54:59.519Z,74.48
2022-11-03T09:57:27.457Z,73.86
2022-11-03T09:59:54.161Z,73.42
2022-11-03T10:02:25.635Z,72.89
2022-11-03T10:04:52.962Z,72.93
2022-11-03T10:07:20.275Z,72.91
2022-11-03T10:09:49.701Z,72.68
2022-11-03T10:12:16.100Z,72.68
2022-11-03T10:14:44.052Z,72.43
2022-11-03T10:17:15.948Z,71.78
2022-11-03T10:19:43.573Z,71.11
2022-11-03T10:22:10.147Z,71.33
2022-11-03T10:24:36.508Z,71.39
2022-11-03T10:27:02.885Z,70.92
2022-11-03T10:29:29.231Z,70.90
2022-11-03T10:31:58.282Z,70.42
2022-11-03T10:34:28.620Z,70.84
2022-11-03T10:37:14.403Z,70.81
2022-11-03T10:39:40.777Z,70.33
2022-11-03T10:42:16.599Z,70.47
2022-11-03T10:44:42.948Z,70.20
2022-11-03T10:47:22.498Z,69.49
2022-11-03T10:49:48.914Z,69.89
2022-11-03T10:52:22.791Z,69.57
2022-11-03T10:54:54.244Z,70.12
2022-11-03T10:57:22.052Z,69.30
2022-11-03T10:59:50.277Z,69.27
2022-11-03T11:02:24.845Z,69.63
2022-11-03T11:04:59.207Z,69.28
2022-11-03T11:07:33.012Z,69.68
2022-11-03T11:10:06.710Z,69.10
2022-11-03T11:12:33.061Z,68.48
2022-11-03T11:15:01.460Z,68.49
2022-11-03T11:17:36.973Z,68.25
2022-11-03T11:20:18.808Z,68.18
2022-11-03T11:22:45.785Z,68.42
2022-11-03T11:25:12.208Z,68.70
2022-11-03T11:27:38.475Z,68.57
2022-11-03T11:30:07.365Z,68.60
2022-11-03T11:32:36.738Z,68.27
2022-11-03T11:35:03.242Z,68.37
2022-11-03T11:37:29.509Z,68.22
2022-11-03T11:39:55.881Z,67.43
2022-11-03T11:42:22.370Z,67.71
2022-11-03T11:44:53.881Z,67.16
2022-11-03T11:47:26.028Z,67.47
2022-11-03T11:50:07.610Z,66.95
2022-11-03T11:52:36.650Z,66.53
2022-11-03T11:55:03.849Z,66.04
2022-11-03T11:57:34.198Z,65.37
2022-11-03T12:00:00.690Z,65.05
2022-11-03T12:02:29.782Z,64.62
2022-11-03T12:05:02.889Z,63.78
2022-11-03T12:07:33.540Z,63.70
2022-11-03T12:10:09.695Z,63.25
2022-11-03T12:12:36.246Z,63.83
2022-11-03T12:15:02.618Z,62.79
2022-11-03T12:17:28.876Z,63.06
2022-11-03T12:19:55.553Z,62.07
2022-11-03T12:22:24.883Z,61.91
2022-11-03T12:25:15.531Z,61.69
2022-11-03T12:27:43.045Z,61.65
2022-11-03T12:30:18.639Z,62.14
2022-11-03T12:32:46.086Z,61.81
2022-11-03T12:35:13.613Z,61.62
2022-11-03T12:37:40.903Z,61.11
2022-11-03T12:40:07.864Z,61.35
2022-11-03T12:42:35.025Z,61.36
2022-11-03T12:45:01.460Z,60.94
2022-11-03T12:47:27.883Z,60.70
2022-11-03T12:49:54.311Z,59.92
2022-11-03T12:52:20.683Z,59.47
2022-11-03T12:54:47.047Z,59.31
2022-11-03T12:57:13.859Z,59.09
2022-11-03T12:59:40.558Z,59.44
2022-11-03T13:02:08.772Z,59.55
2022-11-03T13:04:35.262Z,59.75
2022-11-03T13:07:01.644Z,60.12
2022-11-03T13:09:27.994Z,60.02
2022-11-03T13:12:12.892Z,60.04
2022-11-03T13:14:42.039Z,59.78
2022-11-03T13:17:10.722Z,59.83
2022-11-03T13:19:37.146Z,60.07
2022-11-03T13:22:03.632Z,60.32
2022-11-03T13:24:29.997Z,60.94
2022-11-03T13:26:56.349Z,61.32
2022-11-03T13:29:22.750Z,61.14
2022-11-03T13:31:49.121Z,61.39
2022-11-03T13:34:15.530Z,61.53
2022-11-03T13:36:41.946Z,62.41
2022-11-03T13:39:08.304Z,62.26
2022-11-03T13:41:34.661Z,62.73
2022-11-03T13:44:01.015Z,63.09
2022-11-03T13:46:27.396Z,63.50
2022-11-03T13:49:51.111Z,63.56
2022-11-03T13:51:40.444Z,63.56
2022-11-03T13:59:39.791Z,64.12
2022-11-03T14:04:53.227Z,64.71
2022-11-03T14:07:19.620Z,64.55
2022-11-03T14:09:46.047Z,64.49
2022-11-03T14:12:30.676Z,64.54
2022-11-03T14:15:06.140Z,64.66
2022-11-03T14:17:32.959Z,65.02
2022-11-03T14:20:04.251Z,64.99
2022-11-03T14:22:31.431Z,65.08
2022-11-03T14:24:57.880Z,65.50
2022-11-03T14:27:24.274Z,65.53
2022-11-03T14:29:50.769Z,65.32
2022-11-03T14:32:18.054Z,65.39
2022-11-03T14:34:44.573Z,65.63
2022-11-03T14:37:11.624Z,64.86
2022-11-03T14:39:38.260Z,65.46
2022-11-03T14:42:15.826Z,65.50
2022-11-03T14:44:43.607Z,65.49
2022-11-03T14:48:04.992Z,65.51
2022-11-03T14:50:31.537Z,65.93
2022-11-03T14:52:59.957Z,65.84
2022-11-03T14:55:26.644Z,66.00
2022-11-03T14:57:53.006Z,66.41
2022-11-03T15:00:20.201Z,66.57
2022-11-03T15:02:46.550Z,66.89
2022-11-03T15:05:32.867Z,67.00
2022-11-03T15:07:59.225Z,66.85
2022-11-03T15:10:25.679Z,67.28
2022-11-03T15:12:52.139Z,67.19
2022-11-03T15:15:18.534Z,67.06
2022-11-03T15:17:44.975Z,67.48
2022-11-03T15:20:11.485Z,67.35
2022-11-03T15:25:28.871Z,67.53
2022-11-03T15:28:00.284Z,68.10
2022-11-03T15:30:26.855Z,67.49
2022-11-03T15:32:53.298Z,68.59
2022-11-03T15:35:19.763Z,69.66
2022-11-03T15:37:46.254Z,69.89
2022-11-03T15:40:13.855Z,70.34
2022-11-03T15:42:40.473Z,71.09
2022-11-03T15:45:12.663Z,71.58
2022-11-03T15:47:39.121Z,71.47
2022-11-03T15:50:06.724Z,72.03
2022-11-03T15:52:33.135Z,72.54
2022-11-03T15:54:59.591Z,71.94
2022-11-03T15:57:26.363Z,72.15
2022-11-03T15:59:55.345Z,71.65
2022-11-03T16:05:10.680Z,73.19
2022-11-03T16:07:37.028Z,73.99
2022-11-03T16:10:03.685Z,74.17
2022-11-03T16:12:30.203Z,73.38
2022-11-03T16:14:56.974Z,72.52
2022-11-03T16:17:23.470Z,73.83
2022-11-03T16:19:50.304Z,78.42
2022-11-03T16:22:16.718Z,77.12
2022-11-03T16:24:46.289Z,74.99
2022-11-03T16:27:12.810Z,77.37
2022-11-03T16:29:39.157Z,80.72
2022-11-03T16:32:05.603Z,83.38
2022-11-03T16:34:32.024Z,86.25
2022-11-03T16:36:58.778Z,88.85
2022-11-03T16:39:25.156Z,91.27
2022-11-03T16:41:54.696Z,93.40
2022-11-03T16:44:21.483Z,96.96
2022-11-03T16:46:47.926Z,100.00
2022-11-03T16:49:14.341Z,100.00
2022-11-03T16:51:40.700Z,100.00
2022-11-03T16:54:07.466Z,100.00
2022-11-03T16:56:33.912Z,100.00
2022-11-03T16:59:00.321Z,100.00
2022-11-03T17:01:27.433Z,100.00
2022-11-03T17:03:53.993Z,100.00
2022-11-03T17:06:20.440Z,100.00
2022-11-03T17:08:52.937Z,100.00
2022-11-03T17:11:38.075Z,100.00
2022-11-03T17:14:05.736Z,100.00
2022-11-03T17:16:32.218Z,100.00
2022-11-03T17:18:58.581Z,100.00
2022-11-03T17:21:25.997Z,100.00
2022-11-03T17:23:52.746Z,100.00
2022-11-03T17:26:24.041Z,100.00
2022-11-03T17:28:50.429Z,100.00
2022-11-03T17:31:16.849Z,100.00
2022-11-03T17:33:43.342Z,100.00
2022-11-03T17:36:10.153Z,100.00
2022-11-03T17:38:38.439Z,100.00
2022-11-03T17:41:04.864Z,100.00
2022-11-03T17:43:31.278Z,100.00
2022-11-03T17:45:57.649Z,100.00
2022-11-03T17:48:24.216Z,100.00
2022-11-03T17:50:53.467Z,100.00
2022-11-03T17:53:24.520Z,100.00
2022-11-03T17:56:08.747Z,100.00
2022-11-03T17:58:44.802Z,100.00
2022-11-03T18:01:12.764Z,100.00
2022-11-03T18:03:40.517Z,100.00
2022-11-03T18:06:15.464Z,100.00
2022-11-03T18:08:41.881Z,100.00
2022-11-03T18:11:09.086Z,100.00
2022-11-03T18:13:35.507Z,100.00
2022-11-03T18:16:10.631Z,100.00
2022-11-03T18:18:43.414Z,100.00
2022-11-03T18:21:14.292Z,100.00
2022-11-03T18:23:40.678Z,100.00
2022-11-03T18:26:16.380Z,100.00
2022-11-03T18:28:42.751Z,100.00
2022-11-03T18:31:18.973Z,100.00
2022-11-03T18:33:45.825Z,100.00
2022-11-03T18:36:14.534Z,100.00
2022-11-03T18:38:42.467Z,100.00
2022-11-03T18:41:33.945Z,100.00
2022-11-03T18:44:00.799Z,100.00
2022-11-03T18:46:27.176Z,100.00
2022-11-03T18:48:53.594Z,100.00
2022-11-03T18:51:20.171Z,100.00
2022-11-03T18:53:46.638Z,100.00
2022-11-03T18:56:13.420Z,100.00
2022-11-03T18:58:39.932Z,100.00
2022-11-03T19:01:07.101Z,100.00
2022-11-03T19:03:34.581Z,100.00
2022-11-03T19:06:01.028Z,100.00
2022-11-03T19:08:32.061Z,100.00
2022-11-03T19:11:03.547Z,100.00
2022-11-03T19:13:34.610Z,100.00
2022-11-03T19:16:02.970Z,100.00
2022-11-03T19:18:33.510Z,100.00
2022-11-03T19:20:59.875Z,100.00
2022-11-03T19:23:26.271Z,100.00
2022-11-03T19:25:57.741Z,100.00
2022-11-03T19:28:24.880Z,100.00
2022-11-03T19:30:56.876Z,100.00
2022-11-03T19:33:25.599Z,100.00
2022-11-03T19:35:52.042Z,100.00
2022-11-03T19:38:19.021Z,100.00
2022-11-03T19:41:04.755Z,100.00
2022-11-03T19:43:34.619Z,100.00
2022-11-03T19:46:01.521Z,100.00
2022-11-03T19:48:31.907Z,100.00
2022-11-03T19:50:58.604Z,100.00
2022-11-03T19:53:27.528Z,100.00
2022-11-03T19:55:54.255Z,100.00
2022-11-03T19:58:23.325Z,100.00
2022-11-03T20:00:50.492Z,100.00
2022-11-03T20:03:17.229Z,100.00
2022-11-03T20:05:49.055Z,100.00
2022-11-03T20:08:19.077Z,100.00
2022-11-03T20:10:47.542Z,100.00
2022-11-03T20:13:15.920Z,100.00
2022-11-03T20:15:42.330Z,100.00
2022-11-03T20:18:11.885Z,100.00
2022-11-03T20:20:38.792Z,100.00
2022-11-03T20:23:06.669Z,100.00
2022-11-03T20:25:35.012Z,100.00
2022-11-03T20:28:27.411Z,100.00
2022-11-03T20:30:54.775Z,100.00
2022-11-03T20:33:22.981Z,100.00
2022-11-03T20:35:50.725Z,100.00
2022-11-03T20:38:21.613Z,100.00
2022-11-03T20:40:49.303Z,100.00
2022-11-03T20:43:22.297Z,100.00
2022-11-03T20:45:48.836Z,100.00
2022-11-03T20:48:15.368Z,100.00
2022-11-03T20:50:41.742Z,100.00
2022-11-03T20:53:16.370Z,100.00
2022-11-03T20:55:42.960Z,100.00
2022-11-03T20:58:11.970Z,100.00
2022-11-03T21:00:39.045Z,100.00
2022-11-03T21:06:16.550Z,100.00
2022-11-03T21:08:43.685Z,100.00
2022-11-03T21:11:24.051Z,100.00
2022-11-03T21:14:01.582Z,100.00
2022-11-03T21:16:48.524Z,100.00
2022-11-03T21:19:35.650Z,100.00
2022-11-03T21:22:02.172Z,100.00
2022-11-03T21:24:28.565Z,100.00
2022-11-03T21:26:54.952Z,100.00
2022-11-03T21:29:33.154Z,100.00
2022-11-03T21:32:10.548Z,100.00
2022-11-03T21:34:36.966Z,100.00
2022-11-03T21:37:03.741Z,100.00
2022-11-03T21:39:30.511Z,100.00
2022-11-03T21:42:16.116Z,100.00
2022-11-03T21:44:42.951Z,100.00
2022-11-03T21:47:11.114Z,100.00
2022-11-03T21:49:43.234Z,100.00
2022-11-03T21:52:11.608Z,100.00
2022-11-03T21:54:41.751Z,100.00
2022-11-03T21:57:10.374Z,100.00
2022-11-03T21:59:36.775Z,100.00
2022-11-03T22:02:04.525Z,100.00
2022-11-03T22:04:31.134Z,100.00
2022-11-03T22:06:58.447Z,100.00
2022-11-03T22:09:26.121Z,100.00
2022-11-03T22:11:53.195Z,100.00
2022-11-03T22:14:20.198Z,100.00
2022-11-03T22:16:47.160Z,100.00
2022-11-03T22:19:37.758Z,100.00
2022-11-03T22:22:30.543Z,100.00
2022-11-03T22:25:15.450Z,100.00
2022-11-03T22:27:41.998Z,100.00
2022-11-03T22:30:27.460Z,100.00
2022-11-03T22:32:55.349Z,100.00
2022-11-03T22:35:41.106Z,100.00
2022-11-03T22:38:17.823Z,100.00
2022-11-03T22:41:05.265Z,100.00
2022-11-03T22:43:50.406Z,100.00
2022-11-03T22:46:17.462Z,100.00
2022-11-03T22:48:44.199Z,100.00
2022-11-03T22:51:15.610Z,100.00
2022-11-03T22:54:01.132Z,100.00
2022-11-03T22:56:29.182Z,100.00
2022-11-03T22:58:55.929Z,100.00
2022-11-03T23:01:24.431Z,100.00
2022-11-03T23:03:50.930Z,100.00
2022-11-03T23:06:19.652Z,100.00
2022-11-03T23:08:47.281Z,100.00
2022-11-03T23:11:20.927Z,100.00
2022-11-03T23:13:52.799Z,100.00
2022-11-03T23:16:21.587Z,100.00
2022-11-03T23:19:07.166Z,100.00
2022-11-03T23:21:34.129Z,100.00
2022-11-03T23:24:19.606Z,100.00
2022-11-03T23:26:46.094Z,100.00
2022-11-03T23:29:13.404Z,100.00
2022-11-03T23:31:40.828Z,100.00
2022-11-03T23:34:07.982Z,100.00
2022-11-03T23:36:34.481Z,100.00
2022-11-03T23:39:01.283Z,100.00
2022-11-03T23:41:28.201Z,100.00
2022-11-03T23:43:55.001Z,100.00
2022-11-03T23:46:42.593Z,100.00
2022-11-03T23:49:08.993Z,100.00
2022-11-03T23:51:36.350Z,100.00
2022-11-03T23:54:04.030Z,100.00
2022-11-03T23:56:53.099Z,100.00
2022-11-03T23:59:19.554Z,100.00
